createdAt,value
2023-08-08T00:00:40.681Z,91.90
2023-08-08T00:03:13.144Z,92.14
2023-08-08T00:05:45.557Z,92.29
2023-08-08T00:08:18.147Z,92.49
2023-08-08T00:10:53.171Z,92.21
2023-08-08T00:13:25.538Z,92.17
2023-08-08T00:15:57.926Z,92.32
2023-08-08T00:18:30.326Z,92.23
2023-08-08T00:21:05.680Z,92.36
2023-08-08T00:23:38.366Z,91.96
2023-08-08T00:26:13.244Z,91.93
2023-08-08T00:28:45.665Z,92.21
2023-08-08T00:31:19.135Z,91.21
2023-08-08T00:33:51.580Z,90.74
2023-08-08T00:36:23.859Z,91.24
2023-08-08T00:38:56.303Z,91.33
2023-08-08T00:41:31.684Z,91.24
2023-08-08T00:44:04.067Z,91.05
2023-08-08T00:46:37.375Z,90.52
2023-08-08T00:49:10.013Z,91.03
2023-08-08T00:51:43.471Z,91.27
2023-08-08T00:54:18.120Z,90.96
2023-08-08T00:56:53.239Z,90.88
2023-08-08T00:59:25.982Z,91.14
2023-08-08T01:01:58.918Z,91.39
2023-08-08T01:04:32.790Z,90.90
2023-08-08T01:07:17.354Z,91.00
2023-08-08T01:09:58.022Z,90.96
2023-08-08T01:12:33.468Z,91.26
2023-08-08T01:15:07.581Z,90.88
2023-08-08T01:17:41.618Z,91.07
2023-08-08T01:20:18.148Z,91.20
2023-08-08T01:23:00.890Z,90.73
2023-08-08T01:25:36.163Z,91.01
2023-08-08T01:28:09.968Z,90.80
2023-08-08T01:30:43.721Z,90.90
2023-08-08T01:33:16.086Z,91.21
2023-08-08T01:35:52.844Z,91.16
2023-08-08T01:38:31.768Z,90.42
2023-08-08T01:41:09.647Z,90.64
2023-08-08T01:43:44.065Z,90.25
2023-08-08T01:46:18.103Z,89.99
2023-08-08T01:48:50.919Z,90.82
2023-08-08T01:51:25.362Z,90.88
2023-08-08T01:53:57.840Z,90.57
2023-08-08T01:56:32.779Z,90.61
2023-08-08T01:59:05.263Z,91.17
2023-08-08T02:01:37.652Z,91.25
2023-08-08T02:04:10.200Z,91.30
2023-08-08T02:06:42.481Z,91.53
2023-08-08T02:09:16.162Z,91.76
2023-08-08T02:11:51.167Z,92.08
2023-08-08T02:14:23.534Z,91.97
2023-08-08T02:16:55.872Z,92.21
2023-08-08T02:19:28.205Z,92.04
2023-08-08T02:22:01.091Z,92.21
2023-08-08T02:24:33.643Z,92.16
2023-08-08T02:27:09.564Z,92.21
2023-08-08T02:29:42.099Z,91.92
2023-08-08T02:32:14.571Z,91.96
2023-08-08T02:34:46.924Z,91.84
2023-08-08T02:37:19.218Z,91.71
2023-08-08T02:39:51.584Z,91.59
2023-08-08T02:42:26.735Z,91.72
2023-08-08T02:44:59.118Z,91.71
2023-08-08T02:47:31.417Z,91.18
2023-08-08T02:50:03.895Z,91.35
2023-08-08T02:52:36.215Z,91.02
2023-08-08T02:55:09.487Z,91.22
2023-08-08T02:57:44.690Z,91.18
2023-08-08T03:00:18.491Z,91.34
2023-08-08T03:02:50.902Z,91.45
2023-08-08T03:05:23.358Z,91.51
2023-08-08T03:07:55.755Z,91.21
2023-08-08T03:10:28.052Z,91.55
2023-08-08T03:13:03.076Z,91.63
2023-08-08T03:15:36.635Z,91.52
2023-08-08T03:18:09.653Z,91.76
2023-08-08T03:20:42.008Z,91.97
2023-08-08T03:23:14.422Z,91.79
2023-08-08T03:25:46.825Z,92.40
2023-08-08T03:28:21.989Z,91.73
2023-08-08T03:30:54.325Z,91.64
2023-08-08T03:33:26.603Z,91.64
2023-08-08T03:35:58.976Z,91.45
2023-08-08T03:38:31.588Z,91.67
2023-08-08T03:41:04.231Z,91.51
2023-08-08T03:43:39.257Z,91.37
2023-08-08T03:46:12.923Z,91.18
2023-08-08T03:48:45.466Z,91.25
2023-08-08T03:51:17.816Z,91.49
2023-08-08T03:53:50.110Z,91.44
2023-08-08T03:56:22.447Z,90.91
2023-08-08T03:58:57.992Z,90.92
2023-08-08T04:01:30.328Z,91.16
2023-08-08T04:04:02.700Z,91.22
2023-08-08T04:06:35.021Z,91.22
2023-08-08T04:09:08.031Z,91.12
2023-08-08T04:11:40.439Z,91.11
2023-08-08T04:14:15.662Z,91.46
2023-08-08T04:16:48.000Z,91.59
2023-08-08T04:19:20.447Z,91.02
2023-08-08T04:21:52.793Z,90.82
2023-08-08T04:24:25.027Z,90.85
2023-08-08T04:26:57.378Z,90.92
2023-08-08T04:29:32.404Z,91.18
2023-08-08T04:32:04.786Z,90.74
2023-08-08T04:34:37.109Z,91.01
2023-08-08T04:37:10.113Z,91.04
2023-08-08T04:39:44.787Z,90.95
2023-08-08T04:42:17.145Z,90.65
2023-08-08T04:44:52.055Z,90.75
2023-08-08T04:47:24.406Z,90.89
2023-08-08T04:49:57.037Z,90.75
2023-08-08T04:52:29.477Z,91.18
2023-08-08T04:55:01.767Z,91.07
2023-08-08T04:57:34.016Z,90.69
2023-08-08T05:00:10.426Z,90.43
2023-08-08T05:02:43.060Z,89.98
2023-08-08T05:05:16.908Z,90.06
2023-08-08T05:07:50.356Z,89.87
2023-08-08T05:10:22.729Z,89.84
2023-08-08T05:12:55.015Z,90.07
2023-08-08T05:15:29.971Z,89.86
2023-08-08T05:18:02.678Z,89.96
2023-08-08T05:20:35.048Z,90.09
2023-08-08T05:23:07.475Z,89.85
2023-08-08T05:25:39.858Z,89.68
2023-08-08T05:28:12.844Z,89.19
2023-08-08T05:30:47.931Z,88.71
2023-08-08T05:33:20.379Z,88.72
2023-08-08T05:35:52.659Z,88.62
2023-08-08T05:38:25.388Z,88.40
2023-08-08T05:40:57.604Z,88.29
2023-08-08T05:43:30.921Z,88.22
2023-08-08T05:46:05.981Z,87.93
2023-08-08T05:48:38.570Z,87.56
2023-08-08T05:51:11.515Z,87.14
2023-08-08T05:53:43.921Z,86.79
2023-08-08T05:56:17.144Z,86.86
2023-08-08T05:58:49.679Z,86.59
2023-08-08T06:01:24.892Z,86.03
2023-08-08T06:03:57.247Z,86.20
2023-08-08T06:06:29.655Z,85.61
2023-08-08T06:09:09.959Z,84.99
2023-08-08T06:11:42.378Z,84.42
2023-08-08T06:14:14.925Z,84.36
2023-08-08T06:16:50.118Z,83.86
2023-08-08T06:19:22.483Z,82.34
2023-08-08T06:21:54.855Z,83.03
2023-08-08T06:24:27.175Z,81.79
2023-08-08T06:26:59.488Z,80.87
2023-08-08T06:29:32.087Z,79.63
2023-08-08T06:32:07.615Z,79.22
2023-08-08T06:34:40.012Z,79.13
2023-08-08T06:37:12.735Z,79.36
2023-08-08T06:39:46.311Z,78.84
2023-08-08T06:42:18.701Z,77.82
2023-08-08T06:44:51.156Z,77.87
2023-08-08T06:47:26.223Z,77.42
2023-08-08T06:49:58.706Z,76.07
2023-08-08T06:52:31.222Z,75.73
2023-08-08T06:55:03.580Z,73.60
2023-08-08T06:57:38.930Z,73.46
2023-08-08T07:00:14.803Z,74.39
2023-08-08T07:02:49.781Z,72.76
2023-08-08T07:05:23.766Z,72.36
2023-08-08T07:07:56.756Z,71.55
2023-08-08T07:10:29.201Z,71.56
2023-08-08T07:13:01.556Z,70.73
2023-08-08T07:15:33.945Z,71.51
2023-08-08T07:18:10.176Z,70.30
2023-08-08T07:20:43.032Z,70.05
2023-08-08T07:23:15.655Z,69.70
2023-08-08T07:25:49.290Z,67.90
2023-08-08T07:28:22.455Z,67.08
2023-08-08T07:30:55.115Z,68.31
2023-08-08T07:33:30.097Z,67.55
2023-08-08T07:36:02.561Z,66.75
2023-08-08T07:38:37.998Z,66.24
2023-08-08T07:41:12.437Z,66.91
2023-08-08T07:43:44.665Z,66.79
2023-08-08T07:46:17.630Z,66.51
2023-08-08T07:48:52.814Z,65.87
2023-08-08T07:51:25.397Z,64.54
2023-08-08T07:53:57.663Z,63.55
2023-08-08T07:56:30.060Z,63.62
2023-08-08T07:59:03.448Z,64.23
2023-08-08T08:01:35.816Z,63.80
2023-08-08T08:04:10.798Z,63.31
2023-08-08T08:06:45.037Z,62.78
2023-08-08T08:09:17.618Z,61.22
2023-08-08T08:11:49.807Z,60.24
2023-08-08T08:14:22.196Z,59.97
2023-08-08T08:16:54.887Z,60.50
2023-08-08T08:19:37.399Z,60.93
2023-08-08T08:22:10.399Z,60.15
2023-08-08T08:24:42.665Z,59.39
2023-08-08T08:27:15.004Z,58.11
2023-08-08T08:29:47.448Z,58.47
2023-08-08T08:32:19.957Z,58.06
2023-08-08T08:34:54.814Z,57.93
2023-08-08T08:37:27.091Z,58.34
2023-08-08T08:39:59.546Z,57.74
2023-08-08T08:42:34.003Z,58.09
2023-08-08T08:45:08.510Z,57.26
2023-08-08T08:47:42.823Z,56.29
2023-08-08T08:50:20.203Z,56.40
2023-08-08T08:52:52.688Z,56.58
2023-08-08T08:55:24.981Z,54.50
2023-08-08T08:57:58.003Z,53.50
2023-08-08T09:00:30.427Z,53.12
2023-08-08T09:03:07.032Z,52.49
2023-08-08T09:05:46.232Z,54.03
2023-08-08T09:08:19.114Z,53.37
2023-08-08T09:10:52.100Z,51.75
2023-08-08T09:13:27.294Z,50.96
2023-08-08T09:16:00.022Z,51.32
2023-08-08T09:18:32.713Z,50.56
2023-08-08T09:21:07.706Z,51.74
2023-08-08T09:23:44.027Z,52.07
2023-08-08T09:26:19.432Z,52.15
2023-08-08T09:28:53.116Z,51.24
2023-08-08T09:31:25.367Z,51.13
2023-08-08T09:33:59.577Z,51.92
2023-08-08T09:36:34.727Z,52.52
2023-08-08T09:39:08.679Z,52.41
2023-08-08T09:41:41.072Z,53.18
2023-08-08T09:44:13.884Z,52.89
2023-08-08T09:46:46.770Z,52.11
2023-08-08T09:49:20.444Z,50.51
2023-08-08T09:51:55.585Z,49.90
2023-08-08T09:54:29.530Z,50.21
2023-08-08T09:57:03.667Z,50.72
2023-08-08T09:59:37.086Z,49.41
2023-08-08T10:02:10.612Z,49.64
2023-08-08T10:04:44.399Z,49.94
2023-08-08T10:07:19.809Z,50.11
2023-08-08T10:09:53.713Z,51.12
2023-08-08T10:12:27.778Z,50.20
2023-08-08T10:15:02.014Z,50.35
2023-08-08T10:17:41.278Z,50.07
2023-08-08T10:20:18.874Z,50.73
2023-08-08T10:22:59.102Z,50.23
2023-08-08T10:25:37.109Z,50.87
2023-08-08T10:28:26.285Z,50.32
2023-08-08T10:31:02.974Z,49.89
2023-08-08T10:33:47.448Z,50.14
2023-08-08T10:36:19.773Z,49.25
2023-08-08T10:38:56.288Z,48.89
2023-08-08T10:41:32.394Z,49.28
2023-08-08T10:44:04.659Z,49.94
2023-08-08T10:46:39.714Z,49.36
2023-08-08T10:49:12.414Z,48.87
2023-08-08T10:51:48.231Z,48.80
2023-08-08T10:54:30.405Z,48.82
2023-08-08T10:57:05.045Z,48.62
2023-08-08T10:59:43.083Z,47.61
2023-08-08T11:02:15.666Z,46.70
2023-08-08T11:04:48.597Z,46.28
2023-08-08T11:07:21.301Z,46.30
2023-08-08T11:09:57.268Z,46.64
2023-08-08T11:12:29.597Z,46.33
2023-08-08T11:15:01.885Z,46.83
2023-08-08T11:17:34.492Z,47.24
2023-08-08T11:20:07.648Z,46.46
2023-08-08T11:22:39.979Z,47.39
2023-08-08T11:25:15.037Z,47.47
2023-08-08T11:27:55.065Z,46.46
2023-08-08T11:30:29.317Z,46.97
2023-08-08T11:35:38.025Z,45.84
2023-08-08T11:38:11.319Z,45.16
2023-08-08T11:40:47.047Z,45.57
2023-08-08T11:43:19.733Z,46.26
2023-08-08T11:45:55.123Z,47.13
2023-08-08T11:48:27.601Z,47.73
2023-08-08T11:50:59.977Z,47.94
2023-08-08T11:53:32.256Z,47.29
2023-08-08T11:56:08.785Z,46.52
2023-08-08T11:58:41.548Z,46.11
2023-08-08T12:01:15.591Z,46.28
2023-08-08T12:03:47.908Z,46.00
2023-08-08T12:06:20.745Z,45.29
2023-08-08T12:08:53.714Z,44.56
2023-08-08T12:14:05.597Z,44.11
2023-08-08T12:16:37.905Z,44.61
2023-08-08T12:19:15.751Z,45.25
2023-08-08T12:21:48.081Z,45.51
2023-08-08T12:24:20.409Z,45.76
2023-08-08T12:26:55.375Z,45.30
2023-08-08T12:29:27.892Z,44.91
2023-08-08T12:32:00.235Z,44.02
2023-08-08T12:34:32.606Z,44.18
2023-08-08T12:37:04.913Z,44.56
2023-08-08T12:39:37.403Z,45.49
2023-08-08T12:42:12.597Z,46.82
2023-08-08T12:44:44.928Z,47.14
2023-08-08T12:47:17.568Z,46.55
2023-08-08T12:49:49.938Z,46.62
2023-08-08T12:52:23.653Z,46.93
2023-08-08T12:54:56.588Z,47.25
2023-08-08T12:57:32.854Z,46.45
2023-08-08T13:00:05.369Z,45.45
2023-08-08T13:02:38.743Z,45.06
2023-08-08T13:05:11.520Z,44.62
2023-08-08T13:07:44.082Z,45.25
2023-08-08T13:10:20.707Z,45.10
2023-08-08T13:12:56.487Z,45.90
2023-08-08T13:15:29.054Z,46.30
2023-08-08T13:18:01.444Z,45.33
2023-08-08T13:20:33.877Z,45.93
2023-08-08T13:23:06.089Z,45.42
2023-08-08T13:25:38.385Z,44.57
2023-08-08T13:28:15.930Z,44.30
2023-08-08T13:30:48.351Z,44.69
2023-08-08T13:33:22.136Z,44.15
2023-08-08T13:35:54.504Z,44.63
2023-08-08T13:38:26.951Z,44.94
2023-08-08T13:41:01.411Z,44.73
2023-08-08T13:43:36.267Z,45.80
2023-08-08T13:46:11.150Z,46.10
2023-08-08T13:48:44.090Z,45.80
2023-08-08T13:51:16.455Z,46.03
2023-08-08T13:53:50.301Z,46.31
2023-08-08T13:56:23.427Z,47.22
2023-08-08T13:58:58.472Z,47.48
2023-08-08T14:01:30.814Z,46.88
2023-08-08T14:04:03.172Z,47.24
2023-08-08T14:06:36.664Z,46.52
2023-08-08T14:09:11.083Z,46.18
2023-08-08T14:11:43.649Z,46.58
2023-08-08T14:14:18.553Z,46.60
2023-08-08T14:16:50.864Z,47.58
2023-08-08T14:19:24.386Z,48.12
2023-08-08T14:21:56.800Z,47.59
2023-08-08T14:24:29.169Z,47.19
2023-08-08T14:27:02.027Z,47.36
2023-08-08T14:29:37.094Z,46.86
2023-08-08T14:32:10.428Z,46.32
2023-08-08T14:34:43.012Z,44.31
2023-08-08T14:37:15.518Z,38.48
2023-08-08T14:39:47.997Z,38.10
2023-08-08T14:42:20.653Z,38.35
2023-08-08T14:44:55.641Z,38.69
2023-08-08T14:47:28.191Z,38.84
2023-08-08T14:50:00.714Z,37.87
2023-08-08T14:52:33.059Z,36.87
2023-08-08T14:55:05.778Z,36.55
2023-08-08T14:57:38.094Z,37.99
2023-08-08T15:00:15.584Z,39.16
2023-08-08T15:02:47.906Z,39.10
2023-08-08T15:05:20.175Z,40.11
2023-08-08T15:07:52.627Z,41.45
2023-08-08T15:10:24.933Z,42.30
2023-08-08T15:12:57.306Z,40.02
2023-08-08T15:15:32.274Z,37.75
2023-08-08T15:18:04.855Z,37.33
2023-08-08T15:20:37.503Z,37.23
2023-08-08T15:23:11.502Z,37.80
2023-08-08T15:25:43.835Z,37.52
2023-08-08T15:28:16.504Z,36.69
2023-08-08T15:30:51.690Z,35.80
2023-08-08T15:33:24.165Z,35.58
2023-08-08T15:35:57.934Z,36.61
2023-08-08T15:38:30.795Z,38.22
2023-08-08T15:41:03.306Z,38.51
2023-08-08T15:43:35.961Z,38.86
2023-08-08T15:46:13.406Z,40.19
2023-08-08T15:48:45.865Z,42.03
2023-08-08T15:51:18.407Z,42.78
2023-08-08T15:53:50.788Z,43.89
2023-08-08T15:56:23.612Z,45.25
2023-08-08T15:58:56.048Z,45.83
2023-08-08T16:01:31.067Z,44.68
2023-08-08T16:04:03.449Z,42.03
2023-08-08T16:06:35.763Z,40.58
2023-08-08T16:09:09.172Z,40.41
2023-08-08T16:11:41.543Z,41.26
2023-08-08T16:14:13.992Z,42.21
2023-08-08T16:16:49.854Z,43.89
2023-08-08T16:19:25.165Z,43.71
2023-08-08T16:21:57.445Z,43.75
2023-08-08T16:24:30.143Z,44.15
2023-08-08T16:27:02.930Z,45.27
2023-08-08T16:29:35.647Z,45.73
2023-08-08T16:32:10.809Z,46.25
2023-08-08T16:34:43.155Z,47.21
2023-08-08T16:37:15.399Z,47.56
2023-08-08T16:39:48.028Z,48.08
2023-08-08T16:42:20.421Z,48.26
2023-08-08T16:44:52.832Z,48.48
2023-08-08T16:47:27.762Z,48.36
2023-08-08T16:50:00.243Z,48.24
2023-08-08T16:52:32.573Z,48.58
2023-08-08T16:55:04.922Z,49.62
2023-08-08T16:57:37.851Z,50.15
2023-08-08T17:00:12.104Z,50.83
2023-08-08T17:02:47.271Z,51.44
2023-08-08T17:05:20.131Z,51.42
2023-08-08T17:07:52.389Z,52.79
2023-08-08T17:10:24.722Z,54.00
2023-08-08T17:12:57.079Z,55.18
2023-08-08T17:15:29.963Z,56.96
2023-08-08T17:18:05.831Z,57.94
2023-08-08T17:20:38.341Z,58.05
2023-08-08T17:23:10.722Z,60.02
2023-08-08T17:25:43.095Z,60.89
2023-08-08T17:28:15.515Z,61.20
2023-08-08T17:30:48.765Z,61.07
2023-08-08T17:33:23.782Z,63.01
2023-08-08T17:35:56.159Z,63.03
2023-08-08T17:38:28.822Z,64.30
2023-08-08T17:41:01.193Z,63.55
2023-08-08T17:43:33.449Z,64.53
2023-08-08T17:46:05.761Z,65.31
2023-08-08T17:48:40.836Z,66.61
2023-08-08T17:51:13.342Z,68.53
2023-08-08T17:53:45.749Z,70.91
2023-08-08T17:56:18.281Z,71.55
2023-08-08T17:58:50.867Z,70.83
2023-08-08T18:01:23.382Z,72.27
2023-08-08T18:03:58.298Z,73.31
2023-08-08T18:06:31.797Z,73.46
2023-08-08T18:09:05.212Z,74.13
2023-08-08T18:11:39.725Z,75.73
2023-08-08T18:14:13.919Z,74.55
2023-08-08T18:16:46.274Z,75.94
2023-08-08T18:19:23.420Z,75.99
2023-08-08T18:21:55.735Z,75.71
2023-08-08T18:24:28.515Z,77.18
2023-08-08T18:27:00.770Z,74.39
2023-08-08T18:29:33.281Z,75.49
2023-08-08T18:32:05.801Z,75.97
2023-08-08T18:34:40.733Z,75.31
2023-08-08T18:37:13.177Z,76.42
2023-08-08T18:39:45.750Z,76.71
2023-08-08T18:42:18.128Z,77.91
2023-08-08T18:44:50.409Z,77.76
2023-08-08T18:47:22.721Z,77.63
2023-08-08T18:49:57.722Z,78.26
2023-08-08T18:52:30.055Z,79.34
2023-08-08T18:55:02.354Z,78.89
2023-08-08T18:57:35.337Z,78.48
2023-08-08T19:00:09.055Z,78.38
2023-08-08T19:02:41.442Z,79.76
2023-08-08T19:05:18.755Z,80.25
2023-08-08T19:07:52.529Z,80.18
2023-08-08T19:10:25.060Z,80.78
2023-08-08T19:12:57.350Z,81.04
2023-08-08T19:15:30.212Z,80.84
2023-08-08T19:18:02.617Z,80.55
2023-08-08T19:20:37.480Z,80.62
2023-08-08T19:23:09.775Z,79.93
2023-08-08T19:25:42.591Z,81.32
2023-08-08T19:28:16.482Z,80.50
2023-08-08T19:30:49.016Z,80.54
2023-08-08T19:33:21.342Z,80.70
2023-08-08T19:35:57.610Z,81.29
2023-08-08T19:38:30.174Z,81.31
2023-08-08T19:41:05.749Z,81.71
2023-08-08T19:43:38.068Z,82.44
2023-08-08T19:46:11.819Z,82.32
2023-08-08T19:48:46.014Z,82.71
2023-08-08T19:51:21.465Z,82.16
2023-08-08T19:53:53.827Z,83.02
2023-08-08T19:56:26.197Z,82.55
2023-08-08T19:58:58.585Z,83.48
2023-08-08T20:01:31.062Z,83.68
2023-08-08T20:04:05.829Z,83.53
2023-08-08T20:06:40.908Z,84.29
2023-08-08T20:09:13.343Z,83.83
2023-08-08T20:11:45.652Z,83.25
2023-08-08T20:14:18.021Z,83.80
2023-08-08T20:16:50.344Z,84.49
2023-08-08T20:19:22.927Z,85.02
2023-08-08T20:21:57.908Z,84.29
2023-08-08T20:24:32.421Z,85.08
2023-08-08T20:27:04.961Z,84.76
2023-08-08T20:29:37.621Z,85.03
2023-08-08T20:32:09.942Z,85.08
2023-08-08T20:34:42.560Z,85.93
2023-08-08T20:37:18.659Z,85.24
2023-08-08T20:39:52.113Z,85.88
2023-08-08T20:42:24.402Z,85.71
2023-08-08T20:44:56.773Z,86.10
2023-08-08T20:47:29.115Z,86.35
2023-08-08T20:50:01.589Z,86.25
2023-08-08T20:52:37.189Z,86.85
2023-08-08T20:55:10.760Z,87.34
2023-08-08T20:57:43.139Z,86.37
2023-08-08T21:00:18.429Z,86.29
2023-08-08T21:02:50.928Z,86.75
2023-08-08T21:05:23.482Z,87.14
2023-08-08T21:08:01.136Z,86.90
2023-08-08T21:10:33.635Z,87.00
2023-08-08T21:13:06.108Z,86.82
2023-08-08T21:15:38.601Z,86.28
2023-08-08T21:18:10.992Z,86.51
2023-08-08T21:20:43.380Z,87.41
2023-08-08T21:23:18.461Z,87.04
2023-08-08T21:25:50.809Z,87.62
2023-08-08T21:28:24.442Z,87.16
2023-08-08T21:30:56.788Z,87.40
2023-08-08T21:33:29.190Z,87.32
2023-08-08T21:36:01.482Z,87.16
2023-08-08T21:38:37.276Z,87.45
2023-08-08T21:41:09.602Z,87.19
2023-08-08T21:43:42.457Z,87.90
2023-08-08T21:46:15.661Z,87.64
2023-08-08T21:48:48.247Z,87.43
2023-08-08T21:51:20.544Z,87.21
2023-08-08T21:53:55.661Z,87.72
2023-08-08T21:56:29.441Z,88.54
2023-08-08T21:59:02.026Z,88.10
2023-08-08T22:01:34.648Z,87.59
2023-08-08T22:04:07.629Z,87.36
2023-08-08T22:06:40.007Z,87.15
2023-08-08T22:09:15.563Z,87.87
2023-08-08T22:11:47.923Z,87.66
2023-08-08T22:14:20.283Z,88.50
2023-08-08T22:16:52.722Z,88.59
2023-08-08T22:19:27.145Z,87.89
2023-08-08T22:21:59.457Z,87.53
2023-08-08T22:24:35.123Z,88.28
2023-08-08T22:27:07.743Z,87.75
2023-08-08T22:29:40.568Z,87.33
2023-08-08T22:32:12.975Z,87.54
2023-08-08T22:34:45.245Z,86.96
2023-08-08T22:37:17.797Z,87.35
2023-08-08T22:39:53.070Z,86.57
2023-08-08T22:42:25.364Z,86.51
2023-08-08T22:44:57.660Z,87.07
2023-08-08T22:47:29.993Z,86.86
2023-08-08T22:50:02.923Z,86.97
2023-08-08T22:52:35.323Z,88.37
2023-08-08T22:55:11.553Z,88.52
2023-08-08T22:57:44.208Z,87.61
2023-08-08T23:00:19.623Z,88.31
2023-08-08T23:02:52.748Z,87.79
2023-08-08T23:05:25.696Z,87.11
2023-08-08T23:07:58.234Z,87.61
2023-08-08T23:10:33.279Z,87.44
2023-08-08T23:13:05.706Z,87.58
2023-08-08T23:15:40.374Z,88.27
2023-08-08T23:18:14.906Z,87.85
2023-08-08T23:20:49.124Z,88.06
2023-08-08T23:23:21.571Z,87.19
2023-08-08T23:25:57.159Z,87.50
2023-08-08T23:28:29.731Z,86.92
2023-08-08T23:31:02.094Z,87.59
2023-08-08T23:33:34.441Z,87.88
2023-08-08T23:36:07.623Z,87.27
2023-08-08T23:38:42.142Z,87.93
2023-08-08T23:41:19.035Z,87.66
2023-08-08T23:43:51.860Z,88.10
2023-08-08T23:46:24.468Z,88.50
2023-08-08T23:48:57.070Z,87.74
2023-08-08T23:51:29.358Z,88.45
2023-08-08T23:54:01.821Z,87.73
2023-08-08T23:56:36.718Z,87.85
2023-08-08T23:59:09.305Z,87.97
